Licenciado Adolfo Lopez Mateos International Airport
MMTO : now visible

Airfield :











YOU CAN JOIN US ON...

 
LOGIN :

Register | Disclaimer

   EN    FR    IT 

 









Legend :    VFR   Marginal VFR   IFR   Intensive IFR   Very Intensive IFR
Visi :
Ceiling :
>= 8 km
>= 3000ft
5 to 8 km
1000 to 3000 ft
1500m to 5 km
500 to 1000 ft
800 to 1500m
200 to 500 ft
< 800m
< 200 ft
Symbols :   Thunderstorms  Fog  Heavy snow  Heavy precipitations  Wind > 20 kt






- Airport Elevation : 8466 ft
- IATA code : TLC


MMTO - Licenciado Adolfo Lopez Mateos International

CURRENT METAR :
  • 220146Z 05007KT 6SM BKN015CB BKN070 BKN200 14/10 A3036 RMK 8/963 HZY

EXPIRED METARs :
  • 220050Z 06007KT 6SM BKN015CB BKN070 BKN200 14/10 A3035 RMK 8/963 HZY PCPN DSNT N/NE
  • 212349Z 08008KT 6SM BKN015CB BKN070 BKN200 18/08 A3031 RMK SLP068 52012 909 8/963 HZY PCPN DSNT N/NE
  • 212251Z 29007KT 6SM BKN015CB BKN070 BKN200 18/08 A3028 RMK 8/963 HZY PCPN DSNT NW

TAF TAF MMTO
Valid from the 22 at 00:00 until the 23 at 06:00 UTC


212308Z 2200/2306 29007KT 6SM HZ BKN015CB BKN070 BKN200 TX23/2221Z TN10/2212Z
TEMPO 2200/2203 5SM RA VC TS
FM220400 04005KT 5SM HZ SCT015 BKN070
TEMPO 2210/2214 3SM BR OVC008
FM221800 04010KT 6SM HZ BKN015CB BKN070
TEMPO 2221/2301 5SM TSRA



MET'MAP, your aeronautical weather chart ! - Copyright ORBIFLY December 2007 - Disclaimer

ORBIFLY MET'MAP TEAM :

Programming & Development : Alexandra Zaïnal
Concept & Development : Baudouin d'Aumeries
Co-Development & Prog : Marc-Olivier Méhu
Technical & hardware support : Manuel Goepfert

Contact : metmap@orbifly.com




SOURCES & CREDITS :

   NOAA       Earth
Advisory